createdAt,value
2022-12-04T00:00:27.487Z,1.21
2022-12-04T00:02:57.432Z,1.32
2022-12-04T00:05:25.639Z,1.35
2022-12-04T00:07:54.323Z,1.11
2022-12-04T00:10:22.802Z,1.14
2022-12-04T00:12:52.937Z,1.16
2022-12-04T00:15:25.903Z,1.19
2022-12-04T00:17:56.823Z,1.25
2022-12-04T00:20:25.817Z,1.36
2022-12-04T00:22:54.239Z,1.38
2022-12-04T00:25:24.219Z,1.25
2022-12-04T00:27:52.649Z,1.12
2022-12-04T00:30:21.363Z,1.14
2022-12-04T00:32:49.679Z,1.10
2022-12-04T00:35:20.215Z,1.12
2022-12-04T00:37:48.460Z,1.08
2022-12-04T00:40:17.085Z,1.10
2022-12-04T00:42:48.275Z,1.08
2022-12-04T00:45:17.029Z,1.04
2022-12-04T00:47:47.691Z,1.08
2022-12-04T00:50:16.324Z,1.17
2022-12-04T00:52:47.167Z,1.09
2022-12-04T00:55:15.861Z,1.12
2022-12-04T00:57:44.056Z,1.24
2022-12-04T01:00:12.900Z,1.25
2022-12-04T01:02:42.269Z,1.11
2022-12-04T01:05:10.867Z,1.16
2022-12-04T01:07:39.544Z,1.09
2022-12-04T01:10:14.927Z,1.21
2022-12-04T01:12:45.172Z,1.21
2022-12-04T01:15:13.641Z,1.12
2022-12-04T01:17:42.205Z,1.14
2022-12-04T01:20:13.000Z,1.15
2022-12-04T01:22:41.402Z,1.40
2022-12-04T01:25:13.913Z,1.26
2022-12-04T01:27:42.337Z,1.39
2022-12-04T01:30:13.338Z,1.29
2022-12-04T01:32:41.975Z,1.31
2022-12-04T01:35:10.982Z,1.43
2022-12-04T01:37:39.665Z,1.35
2022-12-04T01:40:14.223Z,1.30
2022-12-04T01:42:44.194Z,1.17
2022-12-04T01:45:42.277Z,1.25
2022-12-04T01:48:20.743Z,1.17
2022-12-04T01:50:53.550Z,1.18
2022-12-04T01:53:22.968Z,1.31
2022-12-04T01:55:53.708Z,1.33
2022-12-04T01:58:28.937Z,1.22
2022-12-04T02:01:08.284Z,1.18
2022-12-04T02:03:39.855Z,1.13
2022-12-04T02:06:08.769Z,1.20
2022-12-04T02:08:38.909Z,1.06
2022-12-04T02:11:18.687Z,1.01
2022-12-04T02:13:58.546Z,0.97
2022-12-04T02:16:37.405Z,1.09
2022-12-04T02:19:24.386Z,1.14
2022-12-04T02:21:57.608Z,1.13
2022-12-04T02:24:48.376Z,1.09
2022-12-04T02:27:34.768Z,0.93
2022-12-04T02:30:07.922Z,0.95
2022-12-04T02:32:43.950Z,0.95
2022-12-04T02:35:17.010Z,1.07
2022-12-04T02:37:49.546Z,0.91
2022-12-04T02:40:24.071Z,0.94
2022-12-04T02:42:59.599Z,0.98
2022-12-04T02:45:40.039Z,1.17
2022-12-04T02:48:10.410Z,0.97
2022-12-04T02:50:42.182Z,1.04
2022-12-04T02:53:16.761Z,0.96
2022-12-04T02:55:50.065Z,1.02
2022-12-04T02:58:24.795Z,1.12
2022-12-04T03:01:00.528Z,1.00
2022-12-04T03:03:32.060Z,1.05
2022-12-04T03:06:04.207Z,1.03
2022-12-04T03:08:36.547Z,1.00
2022-12-04T03:11:04.971Z,1.07
2022-12-04T03:13:41.186Z,1.04
2022-12-04T03:16:16.977Z,0.93
2022-12-04T03:18:51.032Z,1.08
2022-12-04T03:21:24.778Z,1.04
2022-12-04T03:23:58.296Z,0.97
2022-12-04T03:26:32.915Z,1.05
2022-12-04T03:29:07.882Z,0.90
2022-12-04T03:31:45.506Z,0.88
2022-12-04T03:34:17.393Z,0.81
2022-12-04T03:36:53.294Z,0.81
2022-12-04T03:39:26.648Z,0.78
2022-12-04T03:42:00.693Z,0.81
2022-12-04T03:44:37.285Z,0.77
2022-12-04T03:47:12.294Z,0.81
2022-12-04T03:49:46.343Z,0.87
2022-12-04T03:52:22.284Z,0.93
2022-12-04T03:54:54.755Z,1.01
2022-12-04T03:57:27.754Z,1.12
2022-12-04T04:00:06.002Z,1.10
2022-12-04T04:02:41.147Z,0.80
2022-12-04T04:05:12.917Z,0.79
2022-12-04T04:07:45.962Z,0.86
2022-12-04T04:10:17.252Z,0.78
2022-12-04T04:13:12.227Z,0.97
2022-12-04T04:16:03.558Z,0.92
2022-12-04T04:18:51.397Z,0.91
2022-12-04T04:21:40.427Z,0.86
2022-12-04T04:24:18.463Z,0.93
2022-12-04T04:26:48.906Z,0.88
2022-12-04T04:29:17.452Z,0.97
2022-12-04T04:31:53.732Z,0.99
2022-12-04T04:34:32.927Z,0.95
2022-12-04T04:37:08.045Z,0.88
2022-12-04T04:39:41.087Z,0.83
2022-12-04T04:42:18.074Z,1.09
2022-12-04T04:44:53.335Z,0.88
2022-12-04T04:47:29.731Z,0.95
2022-12-04T04:50:03.744Z,0.99
2022-12-04T04:52:33.036Z,0.82
2022-12-04T04:55:02.700Z,0.88
2022-12-04T04:57:32.267Z,0.87
2022-12-04T05:00:01.271Z,0.84
2022-12-04T05:02:31.983Z,0.79
2022-12-04T05:05:02.139Z,0.99
2022-12-04T05:07:30.359Z,1.05
2022-12-04T05:09:59.272Z,1.01
2022-12-04T05:12:30.371Z,0.91
2022-12-04T05:15:00.715Z,0.82
2022-12-04T05:17:31.826Z,1.04
2022-12-04T05:20:02.056Z,1.10
2022-12-04T05:22:32.699Z,1.25
2022-12-04T05:25:01.728Z,1.12
2022-12-04T05:27:34.643Z,1.08
2022-12-04T05:30:03.481Z,1.14
2022-12-04T05:32:31.740Z,0.99
2022-12-04T05:34:59.929Z,0.91
2022-12-04T05:37:29.927Z,1.10
2022-12-04T05:39:58.876Z,0.81
2022-12-04T05:42:27.691Z,0.98
2022-12-04T05:44:56.045Z,1.02
2022-12-04T05:47:24.556Z,0.99
2022-12-04T05:49:52.876Z,0.95
2022-12-04T05:52:21.193Z,0.96
2022-12-04T05:54:50.709Z,1.08
2022-12-04T05:57:18.940Z,1.17
2022-12-04T05:59:47.091Z,1.03
2022-12-04T06:02:15.561Z,1.17
2022-12-04T06:04:44.023Z,1.18
2022-12-04T06:07:13.059Z,1.06
2022-12-04T06:09:41.490Z,1.06
2022-12-04T06:12:11.251Z,1.11
2022-12-04T06:14:40.103Z,1.07
2022-12-04T06:17:11.684Z,1.12
2022-12-04T06:19:41.701Z,1.18
2022-12-04T06:22:10.624Z,1.19
2022-12-04T06:24:39.018Z,1.16
2022-12-04T06:30:00.151Z,1.04
2022-12-04T06:32:28.507Z,1.08
2022-12-04T06:34:58.859Z,1.09
2022-12-04T06:37:27.477Z,1.06
2022-12-04T06:39:56.230Z,1.07
2022-12-04T06:42:25.913Z,1.10
2022-12-04T06:44:54.111Z,1.06
2022-12-04T06:47:25.674Z,1.09
2022-12-04T06:49:54.223Z,1.09
2022-12-04T06:52:22.741Z,1.03
2022-12-04T06:54:50.790Z,1.03
2022-12-04T06:57:18.922Z,1.08
2022-12-04T06:59:47.972Z,1.18
2022-12-04T07:02:16.165Z,1.06
2022-12-04T07:04:46.151Z,1.07
2022-12-04T07:07:14.512Z,1.17
2022-12-04T07:09:43.511Z,1.10
2022-12-04T07:12:11.705Z,1.09
2022-12-04T07:14:40.392Z,1.15
2022-12-04T07:17:08.560Z,1.20
2022-12-04T07:19:37.992Z,1.19
2022-12-04T07:22:09.083Z,1.10
2022-12-04T07:24:38.400Z,1.11
2022-12-04T07:27:07.022Z,1.11
2022-12-04T07:29:35.576Z,1.10
2022-12-04T07:32:04.550Z,1.10
2022-12-04T07:34:35.166Z,1.10
2022-12-04T07:37:04.868Z,1.11
2022-12-04T07:39:34.889Z,1.13
2022-12-04T07:42:03.198Z,1.19
2022-12-04T07:44:32.613Z,1.20
2022-12-04T07:47:00.765Z,1.23
2022-12-04T07:49:29.434Z,1.29
2022-12-04T07:51:57.901Z,1.19
2022-12-04T07:54:27.751Z,1.28
2022-12-04T07:56:57.730Z,1.35
2022-12-04T07:59:25.891Z,1.30
2022-12-04T08:01:55.417Z,1.29
2022-12-04T08:04:23.648Z,1.28
2022-12-04T08:06:53.098Z,1.30
2022-12-04T08:09:21.583Z,1.31
2022-12-04T08:11:49.699Z,1.28
2022-12-04T08:14:19.796Z,1.30
2022-12-04T08:16:53.039Z,1.50
2022-12-04T08:19:22.538Z,1.48
2022-12-04T08:21:51.431Z,1.40
2022-12-04T08:24:19.954Z,1.35
2022-12-04T08:26:48.400Z,1.35
2022-12-04T08:29:16.575Z,1.45
2022-12-04T08:31:46.535Z,1.42
2022-12-04T08:34:15.563Z,1.46
2022-12-04T08:36:44.087Z,1.43
2022-12-04T08:39:13.476Z,1.46
2022-12-04T08:41:42.005Z,1.48
2022-12-04T08:44:11.404Z,1.56
2022-12-04T08:46:40.792Z,1.48
2022-12-04T08:49:10.764Z,1.56
2022-12-04T08:51:39.153Z,1.50
2022-12-04T08:54:11.201Z,1.60
2022-12-04T08:56:39.622Z,1.56
2022-12-04T08:59:08.042Z,1.56
2022-12-04T09:01:36.287Z,1.63
2022-12-04T09:04:04.909Z,1.56
2022-12-04T09:06:34.506Z,1.62
2022-12-04T09:09:02.816Z,1.69
2022-12-04T09:11:33.055Z,1.72
2022-12-04T09:14:04.230Z,1.72
2022-12-04T09:16:34.501Z,1.67
2022-12-04T09:19:04.673Z,1.70
2022-12-04T09:21:34.780Z,1.62
2022-12-04T09:24:03.267Z,1.65
2022-12-04T09:26:33.639Z,1.58
2022-12-04T09:29:07.709Z,1.75
2022-12-04T09:31:37.222Z,1.71
2022-12-04T09:34:06.078Z,1.61
2022-12-04T09:36:35.889Z,1.70
2022-12-04T09:39:06.665Z,1.72
2022-12-04T09:42:13.045Z,1.62
2022-12-04T09:44:47.029Z,1.64
2022-12-04T09:47:23.675Z,1.64
2022-12-04T09:49:58.396Z,1.66
2022-12-04T09:52:37.006Z,1.72
2022-12-04T09:55:13.575Z,1.61
2022-12-04T09:57:45.830Z,1.66
2022-12-04T10:00:17.367Z,1.53
2022-12-04T10:02:50.113Z,1.59
2022-12-04T10:05:21.711Z,1.59
2022-12-04T10:08:02.223Z,1.64
2022-12-04T10:10:39.416Z,1.77
2022-12-04T10:13:23.719Z,1.78
2022-12-04T10:16:00.436Z,1.81
2022-12-04T10:18:42.407Z,1.80
2022-12-04T10:21:35.631Z,1.79
2022-12-04T10:24:17.791Z,1.77
2022-12-04T10:26:48.189Z,1.77
2022-12-04T10:29:21.982Z,1.81
2022-12-04T10:31:55.492Z,1.76
2022-12-04T10:34:28.376Z,1.76
2022-12-04T10:37:01.894Z,1.83
2022-12-04T10:39:39.070Z,1.91
2022-12-04T10:42:25.560Z,2.00
2022-12-04T10:44:54.062Z,2.06
2022-12-04T10:47:24.899Z,2.00
2022-12-04T10:50:03.990Z,1.96
2022-12-04T10:52:32.212Z,1.95
2022-12-04T10:55:03.428Z,2.21
2022-12-04T10:57:40.031Z,1.98
2022-12-04T11:00:26.139Z,2.14
2022-12-04T11:02:56.870Z,2.18
2022-12-04T11:05:28.870Z,2.18
2022-12-04T11:07:58.946Z,2.18
2022-12-04T11:10:37.045Z,2.24
2022-12-04T11:13:08.279Z,2.15
2022-12-04T11:15:37.770Z,2.24
2022-12-04T11:18:10.650Z,2.21
2022-12-04T11:20:42.826Z,2.23
2022-12-04T11:23:17.942Z,2.26
2022-12-04T11:25:50.504Z,2.17
2022-12-04T11:28:40.527Z,2.15
2022-12-04T11:31:17.012Z,2.23
2022-12-04T11:33:49.563Z,2.07
2022-12-04T11:36:23.184Z,2.07
2022-12-04T11:38:53.541Z,2.09
2022-12-04T11:41:28.791Z,2.19
2022-12-04T11:44:00.344Z,2.21
2022-12-04T11:46:34.165Z,2.19
2022-12-04T11:49:03.609Z,2.24
2022-12-04T11:51:50.002Z,2.30
2022-12-04T11:54:34.664Z,2.36
2022-12-04T11:57:19.503Z,2.43
2022-12-04T12:00:01.777Z,2.40
2022-12-04T12:02:45.954Z,2.46
2022-12-04T12:05:38.540Z,2.52
2022-12-04T12:08:20.912Z,2.37
2022-12-04T12:11:00.241Z,2.35
2022-12-04T12:13:39.663Z,2.43
2022-12-04T12:16:18.537Z,2.37
2022-12-04T12:19:04.791Z,2.38
2022-12-04T12:21:39.373Z,2.38
2022-12-04T12:24:26.602Z,2.46
2022-12-04T12:27:08.755Z,2.47
2022-12-04T12:29:58.934Z,2.50
2022-12-04T12:32:46.324Z,2.51
2022-12-04T12:35:22.864Z,2.55
2022-12-04T12:37:53.853Z,2.56
2022-12-04T12:40:31.583Z,2.55
2022-12-04T12:43:04.801Z,2.63
2022-12-04T12:45:44.345Z,2.70
2022-12-04T12:48:30.324Z,2.68
2022-12-04T12:51:28.388Z,2.71
2022-12-04T12:53:59.617Z,2.92
2022-12-04T12:56:35.658Z,2.86
2022-12-04T12:59:07.534Z,3.05
2022-12-04T13:01:46.384Z,2.70
2022-12-04T13:04:21.163Z,2.91
2022-12-04T13:06:55.349Z,2.96
2022-12-04T13:09:27.908Z,2.74
2022-12-04T13:12:06.954Z,2.76
2022-12-04T13:14:35.354Z,2.63
2022-12-04T13:17:10.354Z,2.67
2022-12-04T13:19:44.379Z,2.79
2022-12-04T13:22:20.138Z,2.70
2022-12-04T13:25:19.694Z,2.69
2022-12-04T13:27:59.499Z,2.76
2022-12-04T13:30:33.361Z,2.66
2022-12-04T13:33:33.143Z,2.83
2022-12-04T13:36:27.903Z,2.77
2022-12-04T13:39:24.776Z,2.87
2022-12-04T13:41:59.967Z,2.88
2022-12-04T13:44:29.951Z,2.80
2022-12-04T13:47:04.114Z,2.70
2022-12-04T13:49:35.754Z,2.66
2022-12-04T13:52:07.281Z,2.77
2022-12-04T13:54:38.203Z,2.65
2022-12-04T13:57:22.730Z,2.69
2022-12-04T14:00:05.327Z,2.64
2022-12-04T14:02:38.056Z,2.73
2022-12-04T14:05:10.418Z,2.67
2022-12-04T14:07:42.496Z,2.68
2022-12-04T14:10:28.662Z,2.69
2022-12-04T14:13:01.435Z,2.67
2022-12-04T14:15:32.638Z,2.58
2022-12-04T14:18:03.838Z,2.51
2022-12-04T14:20:40.652Z,2.55
2022-12-04T14:23:12.381Z,2.65
2022-12-04T14:25:41.966Z,2.66
2022-12-04T14:28:29.436Z,2.72
2022-12-04T14:31:19.848Z,2.68
2022-12-04T14:33:52.420Z,2.69
2022-12-04T14:36:26.516Z,2.62
2022-12-04T14:39:07.723Z,2.58
2022-12-04T14:41:36.222Z,2.57
2022-12-04T14:44:04.897Z,2.54
2022-12-04T14:46:41.558Z,2.61
2022-12-04T14:49:23.244Z,2.59
2022-12-04T14:52:01.371Z,2.60
2022-12-04T14:54:34.859Z,2.65
2022-12-04T14:57:20.384Z,2.62
2022-12-04T14:59:52.756Z,2.70
2022-12-04T15:02:23.980Z,2.67
2022-12-04T15:04:52.974Z,2.77
2022-12-04T15:07:24.961Z,2.71
2022-12-04T15:10:11.745Z,2.90
2022-12-04T15:12:50.102Z,2.75
2022-12-04T15:15:22.420Z,2.79
2022-12-04T15:17:58.391Z,2.72
2022-12-04T15:20:27.919Z,2.68
2022-12-04T15:22:59.150Z,2.63
2022-12-04T15:25:32.110Z,2.64
2022-12-04T15:28:08.179Z,2.72
2022-12-04T15:30:39.697Z,2.65
2022-12-04T15:33:10.518Z,2.62
2022-12-04T15:35:44.269Z,2.64
2022-12-04T15:38:16.024Z,2.69
2022-12-04T15:40:53.094Z,2.79
2022-12-04T15:43:29.684Z,2.72
2022-12-04T15:45:59.729Z,2.78
2022-12-04T15:48:32.246Z,2.62
2022-12-04T15:51:04.002Z,2.61
2022-12-04T15:53:37.947Z,2.61
2022-12-04T15:56:08.866Z,2.56
2022-12-04T15:58:39.615Z,2.54
2022-12-04T16:01:10.838Z,2.55
2022-12-04T16:03:49.200Z,2.58
2022-12-04T16:06:20.754Z,2.56
2022-12-04T16:08:52.176Z,2.61
2022-12-04T16:11:33.679Z,2.60
2022-12-04T16:14:15.682Z,2.57
2022-12-04T16:16:48.491Z,2.57
2022-12-04T16:19:27.656Z,2.67
2022-12-04T16:21:56.394Z,2.66
2022-12-04T16:24:27.559Z,2.62
2022-12-04T16:26:57.496Z,2.58
2022-12-04T16:29:25.735Z,2.58
2022-12-04T16:31:59.610Z,2.67
2022-12-04T16:34:32.478Z,2.69
2022-12-04T16:37:01.027Z,2.65
2022-12-04T16:39:33.761Z,2.64
2022-12-04T16:42:05.639Z,2.63
2022-12-04T16:44:34.069Z,2.65
2022-12-04T16:47:02.280Z,2.75
2022-12-04T16:49:30.844Z,2.62
2022-12-04T16:51:59.052Z,2.70
2022-12-04T16:54:27.660Z,2.66
2022-12-04T16:56:57.888Z,2.62
2022-12-04T16:59:26.039Z,2.61
2022-12-04T17:01:55.006Z,2.61
2022-12-04T17:04:23.824Z,2.65
2022-12-04T17:06:52.026Z,2.67
2022-12-04T17:09:20.697Z,2.69
2022-12-04T17:11:48.877Z,2.64
2022-12-04T17:14:18.779Z,2.66
2022-12-04T17:16:47.396Z,2.70
2022-12-04T17:19:15.991Z,2.68
2022-12-04T17:21:45.262Z,2.70
2022-12-04T17:24:13.541Z,2.72
2022-12-04T17:26:41.639Z,2.74
2022-12-04T17:29:10.684Z,2.69
2022-12-04T17:31:40.823Z,2.64
2022-12-04T17:34:09.502Z,2.63
2022-12-04T17:36:37.669Z,2.70
2022-12-04T17:39:11.794Z,2.70
2022-12-04T17:41:40.137Z,2.72
2022-12-04T17:44:09.569Z,2.61
2022-12-04T17:46:39.269Z,2.62
2022-12-04T17:49:07.781Z,2.65
2022-12-04T17:51:36.410Z,2.68
2022-12-04T17:54:06.832Z,2.72
2022-12-04T17:56:35.761Z,2.69
2022-12-04T17:59:04.829Z,2.62
2022-12-04T18:01:33.625Z,2.64
2022-12-04T18:04:06.321Z,2.69
2022-12-04T18:06:36.854Z,2.60
2022-12-04T18:09:05.815Z,2.63
2022-12-04T18:11:37.443Z,2.62
2022-12-04T18:14:11.653Z,2.62
2022-12-04T18:16:43.550Z,2.63
2022-12-04T18:19:13.815Z,2.57
2022-12-04T18:21:45.176Z,2.62
2022-12-04T18:24:14.664Z,2.64
2022-12-04T18:26:45.067Z,2.62
2022-12-04T18:29:16.582Z,2.63
2022-12-04T18:31:45.654Z,2.62
2022-12-04T18:34:16.146Z,2.71
2022-12-04T18:37:02.464Z,2.65
2022-12-04T18:39:30.726Z,2.67
2022-12-04T18:41:58.925Z,2.67
2022-12-04T18:44:27.953Z,2.73
2022-12-04T18:46:56.120Z,2.70
2022-12-04T18:49:26.319Z,2.72
2022-12-04T18:51:54.758Z,2.66
2022-12-04T18:54:25.574Z,2.60
2022-12-04T18:56:54.097Z,2.70
2022-12-04T18:59:24.135Z,2.61
2022-12-04T19:01:53.370Z,2.63
2022-12-04T19:04:24.411Z,2.66
2022-12-04T19:06:56.771Z,2.66
2022-12-04T19:10:08.994Z,2.71
2022-12-04T19:12:18.458Z,2.66
2022-12-04T19:14:46.618Z,2.61
2022-12-04T19:17:16.468Z,2.68
2022-12-04T19:19:44.727Z,2.65
2022-12-04T19:22:14.612Z,2.63
2022-12-04T19:24:43.539Z,2.59
2022-12-04T19:27:12.269Z,2.62
2022-12-04T19:29:41.313Z,2.65
2022-12-04T19:32:11.004Z,2.66
2022-12-04T19:34:39.186Z,2.63
2022-12-04T19:37:07.769Z,2.75
2022-12-04T19:39:38.220Z,2.80
2022-12-04T19:42:07.606Z,2.80
2022-12-04T19:44:51.220Z,2.84
2022-12-04T19:47:20.500Z,2.93
2022-12-04T19:49:48.824Z,2.87
2022-12-04T19:52:18.270Z,2.88
2022-12-04T19:54:48.323Z,2.95
2022-12-04T19:57:16.905Z,2.85
2022-12-04T19:59:46.793Z,2.86
2022-12-04T20:02:15.920Z,2.90
2022-12-04T20:04:44.550Z,2.96
2022-12-04T20:07:15.649Z,3.10
2022-12-04T20:09:52.057Z,2.92
2022-12-04T20:12:22.781Z,3.06
2022-12-04T20:14:51.342Z,3.12
2022-12-04T20:17:19.971Z,3.18
2022-12-04T20:19:48.063Z,2.98
2022-12-04T20:22:16.437Z,2.99
2022-12-04T20:24:44.925Z,2.95
2022-12-04T20:27:13.685Z,2.98
2022-12-04T20:29:43.842Z,3.09
2022-12-04T20:32:12.340Z,3.03
2022-12-04T20:34:44.205Z,2.86
2022-12-04T20:37:12.872Z,2.93
2022-12-04T20:39:42.295Z,2.89
2022-12-04T20:42:10.685Z,3.06
2022-12-04T20:44:39.183Z,2.89
2022-12-04T20:47:09.550Z,2.79
2022-12-04T20:49:38.342Z,2.90
2022-12-04T20:52:07.570Z,2.82
2022-12-04T20:54:41.253Z,2.72
2022-12-04T20:57:10.779Z,2.78
2022-12-04T20:59:39.380Z,2.77
2022-12-04T21:02:09.634Z,2.78
2022-12-04T21:04:40.888Z,2.81
2022-12-04T21:07:09.735Z,2.80
2022-12-04T21:09:38.951Z,2.73
2022-12-04T21:12:28.853Z,2.88
2022-12-04T21:15:14.414Z,2.82
2022-12-04T21:17:44.222Z,2.84
2022-12-04T21:20:13.213Z,2.92
2022-12-04T21:22:44.823Z,2.89
2022-12-04T21:25:16.158Z,2.88
2022-12-04T21:27:44.575Z,3.05
2022-12-04T21:30:15.098Z,3.01
2022-12-04T21:32:44.991Z,2.86
2022-12-04T21:35:16.509Z,2.91
2022-12-04T21:37:45.959Z,2.86
2022-12-04T21:40:14.475Z,2.79
2022-12-04T21:42:44.116Z,2.90
2022-12-04T21:45:13.355Z,2.82
2022-12-04T21:47:41.893Z,2.93
2022-12-04T21:50:12.380Z,2.98
2022-12-04T21:52:43.268Z,2.98
2022-12-04T21:55:11.540Z,2.92
2022-12-04T21:57:39.677Z,2.93
2022-12-04T22:00:09.813Z,2.87
2022-12-04T22:02:40.269Z,2.96
2022-12-04T22:05:09.418Z,2.95
2022-12-04T22:07:39.062Z,2.94
2022-12-04T22:10:11.082Z,2.85
2022-12-04T22:12:49.546Z,2.83
2022-12-04T22:15:18.625Z,2.91
2022-12-04T22:17:46.736Z,2.90
2022-12-04T22:20:15.531Z,3.02
2022-12-04T22:22:45.279Z,3.08
2022-12-04T22:25:17.488Z,2.92
2022-12-04T22:27:45.842Z,2.94
2022-12-04T22:30:15.118Z,2.89
2022-12-04T22:32:43.330Z,2.92
2022-12-04T22:35:12.523Z,2.88
2022-12-04T22:37:44.702Z,3.02
2022-12-04T22:40:17.112Z,2.96
2022-12-04T22:42:46.157Z,2.87
2022-12-04T22:45:14.760Z,3.03
2022-12-04T22:47:43.042Z,2.99
2022-12-04T22:50:12.904Z,2.97
2022-12-04T22:52:41.926Z,2.92
2022-12-04T22:55:10.439Z,2.90
2022-12-04T22:57:40.969Z,2.81
2022-12-04T23:00:11.107Z,2.83
2022-12-04T23:02:39.642Z,2.79
2022-12-04T23:05:08.221Z,2.74
2022-12-04T23:07:37.604Z,2.84
2022-12-04T23:10:07.987Z,2.88
2022-12-04T23:12:36.189Z,2.78
2022-12-04T23:15:06.835Z,2.83
2022-12-04T23:17:38.052Z,2.79
2022-12-04T23:20:08.027Z,2.87
2022-12-04T23:22:36.416Z,2.82
2022-12-04T23:25:05.059Z,2.85
2022-12-04T23:27:33.772Z,2.94
2022-12-04T23:30:01.902Z,2.91
2022-12-04T23:32:31.796Z,2.91
2022-12-04T23:34:59.885Z,2.79
2022-12-04T23:37:28.919Z,2.76
2022-12-04T23:39:57.360Z,2.78
2022-12-04T23:42:26.520Z,2.79
2022-12-04T23:44:55.079Z,2.75
2022-12-04T23:47:23.527Z,2.81
2022-12-04T23:49:53.306Z,2.85
2022-12-04T23:52:21.462Z,2.80
2022-12-04T23:54:49.893Z,2.78
2022-12-04T23:57:18.381Z,2.84
2022-12-04T23:59:46.415Z,2.87
